createdAt,value
2023-01-20T00:00:49.733Z,79.15
2023-01-20T00:03:18.875Z,79.38
2023-01-20T00:05:54.590Z,79.35
2023-01-20T00:08:24.791Z,79.62
2023-01-20T00:10:53.665Z,79.71
2023-01-20T00:13:24.205Z,79.74
2023-01-20T00:15:56.080Z,78.86
2023-01-20T00:18:32.838Z,78.42
2023-01-20T00:21:12.132Z,78.65
2023-01-20T00:23:43.293Z,78.98
2023-01-20T00:26:15.835Z,79.42
2023-01-20T00:28:44.372Z,79.78
2023-01-20T00:31:17.177Z,79.86
2023-01-20T00:33:51.337Z,80.15
2023-01-20T00:36:20.807Z,80.19
2023-01-20T00:38:56.680Z,79.39
2023-01-20T00:41:27.533Z,78.85
2023-01-20T00:44:02.015Z,78.99
2023-01-20T00:46:31.823Z,79.48
2023-01-20T00:49:02.619Z,79.79
2023-01-20T00:51:31.768Z,80.24
2023-01-20T00:54:26.366Z,80.67
2023-01-20T00:57:01.489Z,80.68
2023-01-20T00:59:29.825Z,80.53
2023-01-20T01:02:02.726Z,79.45
2023-01-20T01:04:34.356Z,79.04
2023-01-20T01:07:03.895Z,78.93
2023-01-20T01:09:32.891Z,79.37
2023-01-20T01:12:02.830Z,79.75
2023-01-20T01:14:33.661Z,80.13
2023-01-20T01:17:02.334Z,79.95
2023-01-20T01:19:33.566Z,80.21
2023-01-20T01:22:04.515Z,80.13
2023-01-20T01:24:32.460Z,79.36
2023-01-20T01:27:04.459Z,78.87
2023-01-20T01:29:35.916Z,78.90
2023-01-20T01:32:08.860Z,79.31
2023-01-20T01:34:37.298Z,79.66
2023-01-20T01:37:07.528Z,80.10
2023-01-20T01:39:38.619Z,79.99
2023-01-20T01:42:15.294Z,80.16
2023-01-20T01:45:07.828Z,80.32
2023-01-20T01:47:38.501Z,80.02
2023-01-20T01:50:08.261Z,79.32
2023-01-20T01:52:43.205Z,79.15
2023-01-20T01:55:13.138Z,79.25
2023-01-20T01:57:41.932Z,79.83
2023-01-20T02:00:13.521Z,80.26
2023-01-20T02:02:42.960Z,80.42
2023-01-20T02:05:12.058Z,80.43
2023-01-20T02:07:40.126Z,80.44
2023-01-20T02:10:10.494Z,80.02
2023-01-20T02:12:39.326Z,79.75
2023-01-20T02:15:30.710Z,79.70
2023-01-20T02:18:28.164Z,80.07
2023-01-20T02:21:16.103Z,80.17
2023-01-20T02:23:57.704Z,80.31
2023-01-20T02:26:53.391Z,80.27
2023-01-20T02:29:48.154Z,80.49
2023-01-20T02:32:40.586Z,80.72
2023-01-20T02:35:14.810Z,80.61
2023-01-20T02:38:12.690Z,80.30
2023-01-20T02:41:06.281Z,79.89
2023-01-20T02:43:54.094Z,80.01
2023-01-20T02:46:25.346Z,80.19
2023-01-20T02:49:06.719Z,80.21
2023-01-20T02:51:40.891Z,80.34
2023-01-20T02:54:16.993Z,80.66
2023-01-20T02:56:45.919Z,80.84
2023-01-20T02:59:21.071Z,80.97
2023-01-20T03:02:04.267Z,81.14
2023-01-20T03:04:45.309Z,80.91
2023-01-20T03:07:14.510Z,80.59
2023-01-20T03:09:51.292Z,80.48
2023-01-20T03:12:51.045Z,80.23
2023-01-20T03:15:24.525Z,80.43
2023-01-20T03:17:53.735Z,80.71
2023-01-20T03:20:24.325Z,80.92
2023-01-20T03:22:55.083Z,81.05
2023-01-20T03:25:22.886Z,81.44
2023-01-20T03:27:51.029Z,81.47
2023-01-20T03:30:24.750Z,80.85
2023-01-20T03:32:54.648Z,80.46
2023-01-20T03:35:23.913Z,80.19
2023-01-20T03:38:04.835Z,79.87
2023-01-20T03:40:36.558Z,80.22
2023-01-20T03:44:05.270Z,80.60
2023-01-20T03:46:58.945Z,80.77
2023-01-20T03:49:38.319Z,80.94
2023-01-20T03:52:16.677Z,80.89
2023-01-20T03:54:52.220Z,79.90
2023-01-20T03:57:25.173Z,79.44
2023-01-20T03:59:53.941Z,79.82
2023-01-20T04:02:22.754Z,80.39
2023-01-20T04:04:51.061Z,80.63
2023-01-20T04:07:23.165Z,80.62
2023-01-20T04:10:07.901Z,80.89
2023-01-20T04:12:38.715Z,80.93
2023-01-20T04:15:08.571Z,79.66
2023-01-20T04:17:46.848Z,79.23
2023-01-20T04:20:17.852Z,79.71
2023-01-20T04:22:53.895Z,80.32
2023-01-20T04:25:25.845Z,80.38
2023-01-20T04:27:54.919Z,80.54
2023-01-20T04:30:26.190Z,80.65
2023-01-20T04:33:01.629Z,80.75
2023-01-20T04:35:39.928Z,79.69
2023-01-20T04:38:09.502Z,78.99
2023-01-20T04:40:43.512Z,78.89
2023-01-20T04:43:15.379Z,79.20
2023-01-20T04:45:44.460Z,79.55
2023-01-20T04:48:12.645Z,79.86
2023-01-20T04:50:42.384Z,80.04
2023-01-20T04:53:13.173Z,80.24
2023-01-20T04:55:43.259Z,80.38
2023-01-20T04:58:16.658Z,80.37
2023-01-20T05:00:48.099Z,79.38
2023-01-20T05:03:22.279Z,78.59
2023-01-20T05:05:54.283Z,78.60
2023-01-20T05:08:22.961Z,79.00
2023-01-20T05:10:55.497Z,79.32
2023-01-20T05:13:28.867Z,79.66
2023-01-20T05:15:58.075Z,79.74
2023-01-20T05:18:26.134Z,79.94
2023-01-20T05:20:57.184Z,80.12
2023-01-20T05:23:26.928Z,79.41
2023-01-20T05:25:59.363Z,78.87
2023-01-20T05:28:33.565Z,78.63
2023-01-20T05:31:01.718Z,79.13
2023-01-20T05:33:33.266Z,79.56
2023-01-20T05:36:05.760Z,79.76
2023-01-20T05:38:52.188Z,79.99
2023-01-20T05:41:24.293Z,80.10
2023-01-20T05:43:55.870Z,79.93
2023-01-20T05:46:32.262Z,79.33
2023-01-20T05:48:59.377Z,78.62
2023-01-20T05:51:33.988Z,78.55
2023-01-20T05:54:06.586Z,78.93
2023-01-20T05:56:36.653Z,79.32
2023-01-20T05:59:10.048Z,79.50
2023-01-20T06:01:40.020Z,79.68
2023-01-20T06:04:08.900Z,79.76
2023-01-20T06:06:37.789Z,79.71
2023-01-20T06:09:11.360Z,78.74
2023-01-20T06:11:43.854Z,77.86
2023-01-20T06:14:12.460Z,78.26
2023-01-20T06:16:44.134Z,78.46
2023-01-20T06:19:16.171Z,78.49
2023-01-20T06:21:46.901Z,78.55
2023-01-20T06:24:19.393Z,78.47
2023-01-20T06:26:51.004Z,78.31
2023-01-20T06:29:26.236Z,77.36
2023-01-20T06:31:55.365Z,76.84
2023-01-20T06:34:24.524Z,76.78
2023-01-20T06:36:55.583Z,76.89
2023-01-20T06:39:25.364Z,77.03
2023-01-20T06:41:52.747Z,76.75
2023-01-20T06:44:20.349Z,76.82
2023-01-20T06:46:54.543Z,76.81
2023-01-20T06:49:33.181Z,76.69
2023-01-20T06:52:09.111Z,76.32
2023-01-20T06:54:44.315Z,75.54
2023-01-20T06:57:17.547Z,74.92
2023-01-20T06:59:45.342Z,75.09
2023-01-20T07:02:18.046Z,75.11
2023-01-20T07:04:54.514Z,75.01
2023-01-20T07:07:33.048Z,74.66
2023-01-20T07:10:03.345Z,74.64
2023-01-20T07:12:33.848Z,74.39
2023-01-20T07:15:04.611Z,74.26
2023-01-20T07:17:37.304Z,73.85
2023-01-20T07:20:17.306Z,72.91
2023-01-20T07:22:44.361Z,72.17
2023-01-20T07:25:15.758Z,72.31
2023-01-20T07:27:44.629Z,72.29
2023-01-20T07:30:13.525Z,72.36
2023-01-20T07:32:45.520Z,71.93
2023-01-20T07:35:21.612Z,71.78
2023-01-20T07:37:55.350Z,71.67
2023-01-20T07:40:23.521Z,71.65
2023-01-20T07:42:51.678Z,71.31
2023-01-20T07:45:25.882Z,70.23
2023-01-20T07:48:03.452Z,69.61
2023-01-20T07:50:33.921Z,69.44
2023-01-20T07:53:04.459Z,69.51
2023-01-20T07:55:38.081Z,69.49
2023-01-20T07:58:09.522Z,69.41
2023-01-20T08:00:44.240Z,69.23
2023-01-20T08:03:12.588Z,69.00
2023-01-20T08:05:44.404Z,68.79
2023-01-20T08:08:16.604Z,68.69
2023-01-20T08:10:52.791Z,68.20
2023-01-20T08:13:28.626Z,67.04
2023-01-20T08:16:01.416Z,66.03
2023-01-20T08:18:34.785Z,66.14
2023-01-20T08:21:06.446Z,65.74
2023-01-20T08:23:36.590Z,65.54
2023-01-20T08:26:31.582Z,64.92
2023-01-20T08:29:15.551Z,64.68
2023-01-20T08:31:44.370Z,64.63
2023-01-20T08:34:18.200Z,64.63
2023-01-20T08:36:53.873Z,64.14
2023-01-20T08:39:23.267Z,63.74
2023-01-20T08:41:54.962Z,63.70
2023-01-20T08:44:25.701Z,63.32
2023-01-20T08:46:58.942Z,63.09
2023-01-20T08:49:29.232Z,62.69
2023-01-20T08:52:02.877Z,62.36
2023-01-20T08:54:34.069Z,62.07
2023-01-20T08:57:02.270Z,62.05
2023-01-20T08:59:33.494Z,61.94
2023-01-20T09:02:01.901Z,61.51
2023-01-20T09:04:30.516Z,61.31
2023-01-20T09:06:57.815Z,60.64
2023-01-20T09:09:47.444Z,60.42
2023-01-20T09:12:16.774Z,60.22
2023-01-20T09:15:24.140Z,59.81
2023-01-20T09:18:28.901Z,59.30
2023-01-20T09:20:58.399Z,59.25
2023-01-20T09:23:30.817Z,59.09
2023-01-20T09:26:35.278Z,59.01
2023-01-20T09:29:11.578Z,59.22
2023-01-20T09:31:51.148Z,58.90
2023-01-20T09:34:29.029Z,58.66
2023-01-20T09:37:19.729Z,58.49
2023-01-20T09:40:07.262Z,58.81
2023-01-20T09:43:45.672Z,58.76
2023-01-20T09:46:42.750Z,58.20
2023-01-20T09:50:15.373Z,57.89
2023-01-20T09:53:02.904Z,57.55
2023-01-20T09:55:53.320Z,57.18
2023-01-20T09:59:07.857Z,56.41
2023-01-20T10:01:48.301Z,55.80
2023-01-20T10:04:21.615Z,55.50
2023-01-20T10:06:52.477Z,55.29
2023-01-20T10:09:26.365Z,54.92
2023-01-20T10:12:04.607Z,54.55
2023-01-20T10:14:51.268Z,54.20
2023-01-20T10:17:33.107Z,54.17
2023-01-20T10:20:32.829Z,53.89
2023-01-20T10:23:06.953Z,53.65
2023-01-20T10:25:42.973Z,53.28
2023-01-20T10:31:02.660Z,53.32
2023-01-20T10:33:35.349Z,52.99
2023-01-20T10:36:24.710Z,52.80
2023-01-20T10:39:55.863Z,52.13
2023-01-20T10:42:28.614Z,51.89
2023-01-20T10:44:56.829Z,52.02
2023-01-20T10:47:44.626Z,51.87
2023-01-20T10:50:19.475Z,51.58
2023-01-20T10:53:26.488Z,51.56
2023-01-20T10:56:54.979Z,51.30
2023-01-20T10:59:41.544Z,51.32
2023-01-20T11:02:30.662Z,51.28
2023-01-20T11:05:01.067Z,50.56
2023-01-20T11:08:09.567Z,50.60
2023-01-20T11:10:45.012Z,50.29
2023-01-20T11:13:38.518Z,50.00
2023-01-20T11:16:12.970Z,50.13
2023-01-20T11:18:42.716Z,50.13
2023-01-20T11:21:12.073Z,50.26
2023-01-20T11:23:49.686Z,50.35
2023-01-20T11:26:48.113Z,50.46
2023-01-20T11:29:15.231Z,50.50
2023-01-20T11:31:58.418Z,50.37
2023-01-20T11:34:37.230Z,50.38
2023-01-20T11:37:08.751Z,50.37
2023-01-20T11:40:01.441Z,50.49
2023-01-20T11:42:43.758Z,50.58
2023-01-20T11:45:34.788Z,50.24
2023-01-20T11:48:21.890Z,50.24
2023-01-20T11:50:58.630Z,50.00
2023-01-20T11:53:27.460Z,50.21
2023-01-20T11:56:02.443Z,50.11
2023-01-20T11:58:34.783Z,49.86
2023-01-20T12:01:07.235Z,49.96
2023-01-20T12:03:51.012Z,49.55
2023-01-20T12:06:47.887Z,49.35
2023-01-20T12:09:17.534Z,49.50
2023-01-20T12:11:58.478Z,49.69
2023-01-20T12:14:34.159Z,49.36
2023-01-20T12:17:26.144Z,49.11
2023-01-20T12:20:21.111Z,49.24
2023-01-20T12:23:26.029Z,49.09
2023-01-20T12:25:58.944Z,49.16
2023-01-20T12:28:51.665Z,49.16
2023-01-20T12:31:21.122Z,49.53
2023-01-20T12:33:51.266Z,49.66
2023-01-20T12:36:39.554Z,50.31
2023-01-20T12:39:14.044Z,50.99
2023-01-20T12:42:02.836Z,51.52
2023-01-20T12:44:52.494Z,51.71
2023-01-20T12:47:53.248Z,52.28
2023-01-20T12:54:07.961Z,52.84
2023-01-20T12:57:01.913Z,53.25
2023-01-20T12:59:42.905Z,53.80
2023-01-20T13:02:21.744Z,54.27
2023-01-20T13:04:59.373Z,54.77
2023-01-20T13:07:32.071Z,55.46
2023-01-20T13:10:42.791Z,55.83
2023-01-20T13:13:29.666Z,56.33
2023-01-20T13:16:25.396Z,56.82
2023-01-20T13:19:03.251Z,57.22
2023-01-20T13:21:31.823Z,57.57
2023-01-20T13:24:05.186Z,58.05
2023-01-20T13:26:34.490Z,58.46
2023-01-20T13:29:21.989Z,58.90
2023-01-20T13:31:51.270Z,59.26
2023-01-20T13:34:43.306Z,59.85
2023-01-20T13:37:35.248Z,60.17
2023-01-20T13:40:03.789Z,59.63
2023-01-20T13:42:42.773Z,59.69
2023-01-20T13:45:14.162Z,60.23
2023-01-20T13:47:47.505Z,60.49
2023-01-20T13:50:22.225Z,60.78
2023-01-20T13:52:51.759Z,61.06
2023-01-20T13:55:43.638Z,60.96
2023-01-20T13:58:15.080Z,61.25
2023-01-20T14:00:43.212Z,61.32
2023-01-20T14:03:33.912Z,61.43
2023-01-20T14:06:02.164Z,61.22
2023-01-20T14:08:42.172Z,61.25
2023-01-20T14:11:14.242Z,61.33
2023-01-20T14:13:54.226Z,61.54
2023-01-20T14:16:28.084Z,61.60
2023-01-20T14:18:57.930Z,61.93
2023-01-20T14:21:30.299Z,62.13
2023-01-20T14:23:59.067Z,62.38
2023-01-20T14:26:29.528Z,62.60
2023-01-20T14:29:01.012Z,62.82
2023-01-20T14:31:39.957Z,62.20
2023-01-20T14:34:25.905Z,62.02
2023-01-20T14:36:55.834Z,62.39
2023-01-20T14:39:27.387Z,62.92
2023-01-20T14:41:59.188Z,63.48
2023-01-20T14:44:31.962Z,63.90
2023-01-20T14:47:03.913Z,64.27
2023-01-20T14:49:38.861Z,64.52
2023-01-20T14:52:07.096Z,64.73
2023-01-20T14:54:38.668Z,64.95
2023-01-20T14:58:02.595Z,65.13
2023-01-20T15:00:32.239Z,65.57
2023-01-20T15:03:19.097Z,65.68
2023-01-20T15:06:20.220Z,65.91
2023-01-20T15:09:05.596Z,65.22
2023-01-20T15:11:37.587Z,64.94
2023-01-20T15:14:08.999Z,65.55
2023-01-20T15:16:48.712Z,66.13
2023-01-20T15:19:22.247Z,66.29
2023-01-20T15:21:58.506Z,66.36
2023-01-20T15:24:36.023Z,66.07
2023-01-20T15:27:04.053Z,65.83
2023-01-20T15:29:33.209Z,65.69
2023-01-20T15:32:02.871Z,65.41
2023-01-20T15:34:30.618Z,65.27
2023-01-20T15:36:57.526Z,64.92
2023-01-20T15:39:29.978Z,64.91
2023-01-20T15:41:59.171Z,64.99
2023-01-20T15:44:32.891Z,65.01
2023-01-20T15:47:01.867Z,64.79
2023-01-20T15:49:30.830Z,63.93
2023-01-20T15:51:57.845Z,63.33
2023-01-20T15:54:24.761Z,63.27
2023-01-20T15:56:54.599Z,63.68
2023-01-20T15:59:21.900Z,63.82
2023-01-20T16:01:49.944Z,63.97
2023-01-20T16:04:17.785Z,64.22
2023-01-20T16:06:46.966Z,64.32
2023-01-20T16:09:30.105Z,64.47
2023-01-20T16:11:57.336Z,64.63
2023-01-20T16:14:27.008Z,64.87
2023-01-20T16:16:54.077Z,65.00
2023-01-20T16:19:21.332Z,65.34
2023-01-20T16:21:49.919Z,64.52
2023-01-20T16:24:19.720Z,63.97
2023-01-20T16:26:47.194Z,64.15
2023-01-20T16:29:14.884Z,64.40
2023-01-20T16:31:42.139Z,64.41
2023-01-20T16:34:14.355Z,64.23
2023-01-20T16:36:48.061Z,64.43
2023-01-20T16:39:15.587Z,64.99
2023-01-20T16:41:48.567Z,65.34
2023-01-20T16:44:17.004Z,65.91
2023-01-20T16:46:50.295Z,66.15
2023-01-20T16:49:22.556Z,66.58
2023-01-20T16:51:54.074Z,65.81
2023-01-20T16:54:23.525Z,65.91
2023-01-20T16:56:50.525Z,66.58
2023-01-20T16:59:18.730Z,67.01
2023-01-20T17:01:47.590Z,67.66
2023-01-20T17:04:17.040Z,67.99
2023-01-20T17:06:47.870Z,68.20
2023-01-20T17:09:15.632Z,68.54
2023-01-20T17:11:43.492Z,68.69
2023-01-20T17:14:12.310Z,68.46
2023-01-20T17:16:40.238Z,68.73
2023-01-20T17:19:07.341Z,68.12
2023-01-20T17:21:37.485Z,67.63
2023-01-20T17:24:10.240Z,67.86
2023-01-20T17:26:39.552Z,68.16
2023-01-20T17:29:09.667Z,68.54
2023-01-20T17:31:39.861Z,68.85
2023-01-20T17:34:11.120Z,69.14
2023-01-20T17:36:40.238Z,69.15
2023-01-20T17:39:10.602Z,69.63
2023-01-20T17:41:46.130Z,69.28
2023-01-20T17:44:18.880Z,68.79
2023-01-20T17:46:50.138Z,68.38
2023-01-20T17:49:20.141Z,69.00
2023-01-20T17:51:47.669Z,69.29
2023-01-20T17:54:17.106Z,69.87
2023-01-20T17:56:47.521Z,69.76
2023-01-20T17:59:18.456Z,70.13
2023-01-20T18:01:51.929Z,70.63
2023-01-20T18:04:20.334Z,70.75
2023-01-20T18:06:51.499Z,71.04
2023-01-20T18:09:20.811Z,70.20
2023-01-20T18:11:48.819Z,70.00
2023-01-20T18:14:16.149Z,70.10
2023-01-20T18:16:45.261Z,70.69
2023-01-20T18:19:20.556Z,70.73
2023-01-20T18:21:50.535Z,70.89
2023-01-20T18:24:18.197Z,71.09
2023-01-20T18:26:47.626Z,71.60
2023-01-20T18:29:43.692Z,71.92
2023-01-20T18:32:12.732Z,70.80
2023-01-20T18:34:43.370Z,70.74
2023-01-20T18:37:15.622Z,71.44
2023-01-20T18:39:47.266Z,71.89
2023-01-20T18:42:15.553Z,72.19
2023-01-20T18:44:44.647Z,72.24
2023-01-20T18:47:16.829Z,72.86
2023-01-20T18:49:46.728Z,73.19
2023-01-20T18:52:18.740Z,73.20
2023-01-20T18:54:48.293Z,72.39
2023-01-20T18:57:16.577Z,71.86
2023-01-20T18:59:43.743Z,72.04
2023-01-20T19:02:13.580Z,72.72
2023-01-20T19:04:45.091Z,73.03
2023-01-20T19:07:17.355Z,73.45
2023-01-20T19:10:15.324Z,73.38
2023-01-20T19:12:51.930Z,73.60
2023-01-20T19:15:23.260Z,74.00
2023-01-20T19:17:55.550Z,73.26
2023-01-20T19:20:27.633Z,72.62
2023-01-20T19:22:56.044Z,72.42
2023-01-20T19:25:29.109Z,72.97
2023-01-20T19:27:57.858Z,73.40
2023-01-20T19:30:28.518Z,73.80
2023-01-20T19:33:02.940Z,74.01
2023-01-20T19:35:32.931Z,74.30
2023-01-20T19:38:04.223Z,74.44
2023-01-20T19:40:35.309Z,73.84
2023-01-20T19:43:03.789Z,73.27
2023-01-20T19:45:44.871Z,73.32
2023-01-20T19:48:23.094Z,73.86
2023-01-20T19:50:51.930Z,74.38
2023-01-20T19:53:19.150Z,73.95
2023-01-20T19:55:48.687Z,73.97
2023-01-20T19:58:19.058Z,74.50
2023-01-20T20:00:48.477Z,74.38
2023-01-20T20:03:17.462Z,74.34
2023-01-20T20:05:46.008Z,73.95
2023-01-20T20:08:14.962Z,73.12
2023-01-20T20:10:43.727Z,73.52
2023-01-20T20:13:13.941Z,73.85
2023-01-20T20:15:44.982Z,73.96
2023-01-20T20:18:13.561Z,74.50
2023-01-20T20:20:44.436Z,74.66
2023-01-20T20:23:14.990Z,74.69
2023-01-20T20:25:53.120Z,74.75
2023-01-20T20:28:21.210Z,74.21
2023-01-20T20:31:07.118Z,73.56
2023-01-20T20:33:34.872Z,73.66
2023-01-20T20:36:09.651Z,74.11
2023-01-20T20:38:37.295Z,74.00
2023-01-20T20:41:09.100Z,74.55
2023-01-20T20:43:36.900Z,74.90
2023-01-20T20:46:06.171Z,74.44
2023-01-20T20:48:38.462Z,74.60
2023-01-20T20:51:09.926Z,75.03
2023-01-20T20:53:39.407Z,74.31
2023-01-20T20:56:09.524Z,74.00
2023-01-20T20:58:55.494Z,74.19
2023-01-20T21:01:32.466Z,74.54
2023-01-20T21:04:02.634Z,74.69
2023-01-20T21:06:33.408Z,75.00
2023-01-20T21:09:06.405Z,75.46
2023-01-20T21:11:33.524Z,75.54
2023-01-20T21:14:01.891Z,75.85
2023-01-20T21:16:33.451Z,75.08
2023-01-20T21:19:01.114Z,74.58
2023-01-20T21:21:29.329Z,74.79
2023-01-20T21:23:59.117Z,74.98
2023-01-20T21:26:31.459Z,75.90
2023-01-20T21:29:02.928Z,75.59
2023-01-20T21:31:31.767Z,75.71
2023-01-20T21:34:00.143Z,76.33
2023-01-20T21:36:29.856Z,76.55
2023-01-20T21:39:04.859Z,76.68
2023-01-20T21:41:32.377Z,75.64
2023-01-20T21:44:21.104Z,75.27
2023-01-20T21:46:53.051Z,74.80
2023-01-20T21:49:41.328Z,75.59
2023-01-20T21:52:34.395Z,76.18
2023-01-20T21:55:07.315Z,76.50
2023-01-20T21:57:39.027Z,76.40
2023-01-20T22:00:07.972Z,76.53
2023-01-20T22:02:46.165Z,76.28
2023-01-20T22:05:15.837Z,75.49
2023-01-20T22:07:43.934Z,75.31
2023-01-20T22:10:16.029Z,75.53
2023-01-20T22:12:44.204Z,76.04
2023-01-20T22:15:21.535Z,76.25
2023-01-20T22:17:50.337Z,76.34
2023-01-20T22:20:18.465Z,76.68
2023-01-20T22:22:46.176Z,76.85
2023-01-20T22:25:15.197Z,76.59
2023-01-20T22:27:43.796Z,75.87
2023-01-20T22:30:13.212Z,75.28
2023-01-20T22:32:41.302Z,75.93
2023-01-20T22:35:09.445Z,76.33
2023-01-20T22:37:37.910Z,76.63
2023-01-20T22:40:08.251Z,76.55
2023-01-20T22:42:35.668Z,77.05
2023-01-20T22:45:04.276Z,77.25
2023-01-20T22:48:56.596Z,77.25
2023-01-20T22:51:32.134Z,76.03
2023-01-20T22:54:08.107Z,75.28
2023-01-20T22:56:42.068Z,75.19
2023-01-20T22:59:12.160Z,75.76
2023-01-20T23:01:43.072Z,76.27
2023-01-20T23:04:13.911Z,75.84
2023-01-20T23:06:44.359Z,76.76
2023-01-20T23:09:15.055Z,76.95
2023-01-20T23:11:49.388Z,77.20
2023-01-20T23:14:41.334Z,77.38
2023-01-20T23:17:13.071Z,76.16
2023-01-20T23:19:54.397Z,75.65
2023-01-20T23:22:26.675Z,75.39
2023-01-20T23:24:58.249Z,75.84
2023-01-20T23:27:29.856Z,76.49
2023-01-20T23:30:03.174Z,76.85
2023-01-20T23:32:40.423Z,76.91
2023-01-20T23:35:18.456Z,77.18
2023-01-20T23:37:50.358Z,76.98
2023-01-20T23:40:20.710Z,76.78
2023-01-20T23:42:48.718Z,76.22
2023-01-20T23:45:47.513Z,75.92
2023-01-20T23:48:21.246Z,76.40
2023-01-20T23:50:51.294Z,76.81
2023-01-20T23:53:26.277Z,76.73
2023-01-20T23:56:00.671Z,76.81
2023-01-20T23:58:30.559Z,76.80
